Details From OBBI - Bahrain Intl
To YMML - Melbourne Intl
Flight Number -
Tags Generated
Created
Modified
Stats Distance 6,537 nm / 12,106 km
Max Altitude 0 ft / 0 m
Waypoints 7
Social Downloads 0
Likes 0
Share VATSIM

Download

Looking for another format? Having issues loading an existing format? Contact us
Advertisement - Login to hide

Notes

Generated

Route

OBBI NICKO DLOEC LEWIS DUKES ML YMML

ID Type Via Altitude Latitude Longitude Leg Dist Tot Dist Heading (true) Name
O OBBI APT - 0 ft / 0 m 26.27100˚ 50.62993˚ - 0 nm - -
NICKO FIX - 0 ft / 0 m -26.45361˚ 117.97250˚ 5018 nm 5018 nm 124° / 124° -
DLOEC FIX - 0 ft / 0 m -28.06287˚ 121.38063˚ 206 nm 5224 nm 119° / 117° -
LEWIS FIX - 0 ft / 0 m -34.75667˚ 136.71667˚ 881 nm 6106 nm 121° / 113° -
DUKES FIX - 0 ft / 0 m -36.08056˚ 140.25070˚ 190 nm 6296 nm 116° / 114° -
ML VOR - 0 ft / 0 m -37.66000˚ 144.84194˚ 240 nm 6536 nm 115° / 112° MELBOURNE VOR-DME
O YMML APT - 0 ft / 0 m -37.66220˚ 144.84819˚ 0 nm 6536 nm 114° / 114° -

Altitude Profile

Advertisement - Login to hide

Weather


0- 5 10 15 20 25 30 35+ Temperature / ° C

Clouds and Precipitation
Forecast for 2017-12-11 12:00 UTC. Updated 12 minutes ago

Ground ~20,000 ft ~40,000 ft Winds

OBBI

Details ICAO OBBI (BAH)
Name BAHRAIN INTL
Region Bahrain
Timezone Asia/Bahrain (UTC+3.0)
Stats Elevation 6 ft / 2 m (AMSL)
Location 26.267837° 50.637095°
Runways 2
Magnetic Variation 2.762° E

METAR

OBBI 111130Z 31020KT CAVOK 20/13 Q1021 NOSIG

Decode

TAF

TAF OBBI 110500Z 1106/1212 32016KT CAVOK= TAF OKBK 110445Z 1106/1212 32012KT 7000 NSC

Decode

Departure Runways

ID Width Length Bearing (true) Bearing (mag) Surface Threshold Offset Overrun Length
12L 197 ft / 60 m 12,893 ft / 3,930 m 122.74° 119.98° Asphalt 1,000 ft / 305 m 0 ft / 0 m
12R 148 ft / 45 m 8,303 ft / 2,531 m 122.76° 120.00° Asphalt 1,000 ft / 305 m 0 ft / 0 m
30L 148 ft / 45 m 8,303 ft / 2,531 m 302.77° 300.01° Asphalt 395 ft / 120 m 0 ft / 0 m
30R 197 ft / 60 m 12,893 ft / 3,930 m 302.75° 299.99° Asphalt 1,000 ft / 305 m 0 ft / 0 m

YMML

Details ICAO YMML (MEL)
Name Melbourne Intl
Region Australia
Timezone Australia/Melbourne (UTC+11.0)
Stats Elevation 433 ft / 132 m (AMSL)
Location -37.665301° 144.836668°
Runways 2
Magnetic Variation 11.504° E

METAR

YMML 111100Z 20007KT 9999 BKN020 15/12 Q1021 FM1200 21007KT 9999 BKN017 FM1330 21007KT 9999 BKN012

Decode

TAF

TAF YMML 110517Z 1106/1212 16012KT CAVOK BECMG 1112/1114 23007KT 9999 BKN012 FM112100 15006KT CAVOK FM120500 16014KT CAVOK FM121000 VRB05KT CAVOK

Decode

Destination Runways

ID Width Length Bearing (true) Bearing (mag) Surface Threshold Offset Overrun Length
09 148 ft / 45 m 7,494 ft / 2,284 m 94.01° 82.51° Asphalt 0 ft / 0 m 0 ft / 0 m
16 148 ft / 45 m 12,008 ft / 3,660 m 171.02° 159.52° Asphalt 98 ft / 30 m 0 ft / 0 m
27 148 ft / 45 m 7,494 ft / 2,284 m 274.00° 262.50° Asphalt 0 ft / 0 m 0 ft / 0 m
34 148 ft / 45 m 12,008 ft / 3,660 m 351.01° 339.51° Asphalt 98 ft / 30 m 0 ft / 0 m

Approach Navaids

Runway Type Ident Frequency Range Bearing (true) Bearing (mag) Slope Elevation
16 Localiser IMS 109.70 MHz 18 nm / 33 km 171.57° 160.07° - 433 ft / 132 m (AMSL)
16 Glidescope IMS 109.70 MHz 10 nm / 19 km 171.02° 159.51° 3.00° 433 ft / 132 m (AMSL)
27 Localiser IMW 109.30 MHz 18 nm / 33 km 274.13° 262.63° - 433 ft / 132 m (AMSL)
27 Glidescope IMW 109.30 MHz 10 nm / 19 km 274.00° 262.50° 3.00° 433 ft / 132 m (AMSL)